createdAt,value
2018-04-23T00:01:49.620Z,99.90
2018-04-23T00:04:17.852Z,99.90
2018-04-23T00:06:45.685Z,99.90
2018-04-23T00:09:13.163Z,99.90
2018-04-23T00:11:40.702Z,99.90
2018-04-23T00:14:08.637Z,99.90
2018-04-23T00:16:36.125Z,99.90
2018-04-23T00:19:03.841Z,99.90
2018-04-23T00:21:31.329Z,99.90
2018-04-23T00:23:58.848Z,99.90
2018-04-23T00:26:26.370Z,99.90
2018-04-23T00:28:53.888Z,99.90
2018-04-23T00:31:21.422Z,99.90
2018-04-23T00:33:49.086Z,99.90
2018-04-23T00:36:16.585Z,99.90
2018-04-23T00:38:44.067Z,99.90
2018-04-23T00:41:11.596Z,99.90
2018-04-23T00:43:39.815Z,99.90
2018-04-23T00:46:08.084Z,99.90
2018-04-23T00:48:35.576Z,99.90
2018-04-23T00:51:03.084Z,99.90
2018-04-23T00:53:31.379Z,99.90
2018-04-23T00:55:59.048Z,99.90
2018-04-23T00:58:26.472Z,99.90
2018-04-23T01:00:54.035Z,99.90
2018-04-23T01:03:21.513Z,99.90
2018-04-23T01:05:49.831Z,99.90
2018-04-23T01:08:17.296Z,99.90
2018-04-23T01:10:44.828Z,99.90
2018-04-23T01:13:12.397Z,99.90
2018-04-23T01:15:39.883Z,99.90
2018-04-23T01:18:07.374Z,99.90
2018-04-23T01:20:34.992Z,99.90
2018-04-23T01:23:02.389Z,99.90
2018-04-23T01:25:29.914Z,99.90
2018-04-23T01:27:58.247Z,99.90
2018-04-23T01:30:26.002Z,99.90
2018-04-23T01:32:53.513Z,99.90
2018-04-23T01:35:20.984Z,99.90
2018-04-23T01:37:49.288Z,99.90
2018-04-23T01:40:16.757Z,99.90
2018-04-23T01:42:44.275Z,99.90
2018-04-23T01:45:12.339Z,99.90
2018-04-23T01:47:39.812Z,99.90
2018-04-23T01:50:07.369Z,99.90
2018-04-23T01:52:34.953Z,99.90
2018-04-23T01:55:03.311Z,99.90
2018-04-23T01:57:30.795Z,99.90
2018-04-23T01:59:59.102Z,99.90
2018-04-23T02:02:26.619Z,99.90
2018-04-23T02:04:54.157Z,99.90
2018-04-23T02:07:23.479Z,99.90
2018-04-23T02:09:50.996Z,99.90
2018-04-23T02:12:19.307Z,99.90
2018-04-23T02:14:46.845Z,99.90
2018-04-23T02:17:14.337Z,99.90
2018-04-23T02:19:41.955Z,99.90
2018-04-23T02:22:10.296Z,99.90
2018-04-23T02:24:37.817Z,99.90
2018-04-23T02:27:05.344Z,99.90
2018-04-23T02:29:32.861Z,99.90
2018-04-23T02:32:00.516Z,99.90
2018-04-23T02:34:28.096Z,99.90
2018-04-23T02:36:55.794Z,99.90
2018-04-23T02:39:23.454Z,99.90
2018-04-23T02:41:51.063Z,99.90
2018-04-23T02:44:19.481Z,99.90
2018-04-23T02:46:47.065Z,99.90
2018-04-23T02:49:14.680Z,99.90
2018-04-23T02:51:42.960Z,99.90
2018-04-23T02:54:11.224Z,99.90
2018-04-23T02:56:39.465Z,99.90
2018-04-23T02:59:06.954Z,99.90
2018-04-23T03:01:34.479Z,99.90
2018-04-23T03:04:02.638Z,99.90
2018-04-23T03:06:31.002Z,99.90
2018-04-23T03:08:58.840Z,99.90
2018-04-23T03:11:26.434Z,99.90
2018-04-23T03:13:54.830Z,99.90
2018-04-23T03:16:23.202Z,99.90
2018-04-23T03:18:52.070Z,99.90
2018-04-23T03:21:20.472Z,99.90
2018-04-23T03:23:48.100Z,99.90
2018-04-23T03:26:15.896Z,99.90
2018-04-23T03:28:43.510Z,99.90
2018-04-23T03:31:11.067Z,99.90
2018-04-23T03:33:38.761Z,99.90
2018-04-23T03:36:06.272Z,99.90
2018-04-23T03:38:33.757Z,99.90
2018-04-23T03:41:01.228Z,99.90
2018-04-23T03:43:28.802Z,99.90
2018-04-23T03:45:57.062Z,99.90
2018-04-23T03:48:24.594Z,99.90
2018-04-23T03:50:52.091Z,99.90
2018-04-23T03:53:20.705Z,99.90
2018-04-23T03:55:48.187Z,99.90
2018-04-23T03:58:17.004Z,99.90
2018-04-23T04:00:44.469Z,99.90
2018-04-23T04:03:11.999Z,99.90
2018-04-23T04:05:39.497Z,99.90
2018-04-23T04:08:07.042Z,99.90
2018-04-23T04:10:34.543Z,99.90
2018-04-23T04:13:02.053Z,99.90
2018-04-23T04:15:29.569Z,99.90
2018-04-23T04:17:57.856Z,99.90
2018-04-23T04:20:26.129Z,99.90
2018-04-23T04:22:54.425Z,99.90
2018-04-23T04:25:21.977Z,99.90
2018-04-23T04:27:50.210Z,99.90
2018-04-23T04:30:18.760Z,99.90
2018-04-23T04:32:46.243Z,99.90
2018-04-23T04:35:13.773Z,99.90
2018-04-23T04:37:42.031Z,99.90
2018-04-23T04:40:09.575Z,99.90
2018-04-23T04:42:37.065Z,99.90
2018-04-23T04:45:04.620Z,99.90
2018-04-23T04:47:32.070Z,99.90
2018-04-23T04:49:59.561Z,99.90
2018-04-23T04:52:27.845Z,99.90
2018-04-23T04:54:56.077Z,99.90
2018-04-23T04:57:23.608Z,99.90
2018-04-23T04:59:51.106Z,99.90
2018-04-23T05:02:18.618Z,99.90
2018-04-23T05:04:46.129Z,99.90
2018-04-23T05:07:14.344Z,99.90
2018-04-23T05:09:41.866Z,99.90
2018-04-23T05:12:09.354Z,99.90
2018-04-23T05:14:36.871Z,99.90
2018-04-23T05:17:04.361Z,99.90
2018-04-23T05:19:32.640Z,99.90
2018-04-23T05:22:00.109Z,99.90
2018-04-23T05:24:27.647Z,99.90
2018-04-23T05:26:55.156Z,99.90
2018-04-23T05:29:22.695Z,99.90
2018-04-23T05:31:50.206Z,99.90
2018-04-23T05:34:18.270Z,99.90
2018-04-23T05:36:45.729Z,99.90
2018-04-23T05:39:13.333Z,99.90
2018-04-23T05:41:40.760Z,99.90
2018-04-23T05:44:09.040Z,99.90
2018-04-23T05:46:36.624Z,99.90
2018-04-23T05:49:05.147Z,99.90
2018-04-23T05:51:32.878Z,99.90
2018-04-23T05:54:01.208Z,99.90
2018-04-23T05:56:28.798Z,99.90
2018-04-23T05:58:56.998Z,99.30
2018-04-23T06:01:24.504Z,99.30
2018-04-23T06:03:52.058Z,99.00
2018-04-23T06:06:20.326Z,97.40
2018-04-23T06:08:48.865Z,95.40
2018-04-23T06:11:16.315Z,95.70
2018-04-23T06:13:43.776Z,95.50
2018-04-23T06:16:11.302Z,95.20
2018-04-23T06:18:38.743Z,94.60
2018-04-23T06:21:06.220Z,93.80
2018-04-23T06:23:33.735Z,92.80
2018-04-23T06:26:01.265Z,93.40
2018-04-23T06:28:28.780Z,93.30
2018-04-23T06:30:56.343Z,93.70
2018-04-23T06:33:23.792Z,93.30
2018-04-23T06:35:51.404Z,92.20
2018-04-23T06:38:18.876Z,92.10
2018-04-23T06:40:46.331Z,92.30
2018-04-23T06:43:13.929Z,92.40
2018-04-23T06:45:41.361Z,92.70
2018-04-23T06:48:08.905Z,91.70
2018-04-23T06:50:36.439Z,90.40
2018-04-23T06:53:03.899Z,88.90
2018-04-23T06:55:31.851Z,90.30
2018-04-23T06:57:59.494Z,90.70
2018-04-23T07:00:27.145Z,91.00
2018-04-23T07:02:54.663Z,90.60
2018-04-23T07:05:22.197Z,91.00
2018-04-23T07:07:49.631Z,90.70
2018-04-23T07:10:17.908Z,90.10
2018-04-23T07:12:46.277Z,86.60
2018-04-23T07:15:13.705Z,86.50
2018-04-23T07:17:41.291Z,83.10
2018-04-23T07:20:08.775Z,78.70
2018-04-23T07:22:37.088Z,80.70
2018-04-23T07:25:04.615Z,80.80
2018-04-23T07:27:32.921Z,77.50
2018-04-23T07:30:01.384Z,76.40
2018-04-23T07:32:28.965Z,76.40
2018-04-23T07:34:56.401Z,79.10
2018-04-23T07:37:23.893Z,80.80
2018-04-23T07:39:51.407Z,77.30
2018-04-23T07:42:18.939Z,78.80
2018-04-23T07:44:46.415Z,77.50
2018-04-23T07:47:13.888Z,76.30
2018-04-23T07:49:41.449Z,72.30
2018-04-23T07:52:08.937Z,70.40
2018-04-23T07:54:36.601Z,69.50
2018-04-23T07:57:04.190Z,68.90
2018-04-23T07:59:32.698Z,68.60
2018-04-23T08:02:00.367Z,68.90
2018-04-23T08:04:27.833Z,70.70
2018-04-23T08:06:55.439Z,71.40
2018-04-23T08:09:23.653Z,60.60
2018-04-23T08:11:51.917Z,46.20
2018-04-23T08:14:19.416Z,46.30
2018-04-23T08:16:46.926Z,44.60
2018-04-23T08:19:14.493Z,42.30
2018-04-23T08:21:41.953Z,44.10
2018-04-23T08:24:09.475Z,42.90
2018-04-23T08:26:37.064Z,36.20
2018-04-23T08:29:05.267Z,31.30
2018-04-23T08:31:32.903Z,31.30
2018-04-23T08:34:02.110Z,29.00
2018-04-23T08:36:29.593Z,29.30
2018-04-23T08:38:57.111Z,28.70
2018-04-23T08:41:24.730Z,27.90
2018-04-23T08:43:52.224Z,27.70
2018-04-23T08:46:19.660Z,26.60
2018-04-23T08:48:47.171Z,25.70
2018-04-23T08:51:15.218Z,24.00
2018-04-23T08:53:43.476Z,23.80
2018-04-23T08:56:11.024Z,23.70
2018-04-23T08:58:38.537Z,24.70
2018-04-23T09:01:06.136Z,25.10
2018-04-23T09:03:33.649Z,24.70
2018-04-23T09:06:01.218Z,24.60
2018-04-23T09:08:28.748Z,24.60
2018-04-23T09:10:56.337Z,23.80
2018-04-23T09:13:24.287Z,24.80
2018-04-23T09:15:51.772Z,25.50
2018-04-23T09:18:20.072Z,27.80
2018-04-23T09:20:47.583Z,27.70
2018-04-23T09:23:16.691Z,29.50
2018-04-23T09:25:44.349Z,28.70
2018-04-23T09:28:11.779Z,29.50
2018-04-23T09:30:39.348Z,30.90
2018-04-23T09:33:06.821Z,29.70
2018-04-23T09:35:34.291Z,27.20
2018-04-23T09:38:01.825Z,28.20
2018-04-23T09:40:29.406Z,25.80
2018-04-23T09:42:56.969Z,25.10
2018-04-23T09:45:24.663Z,24.80
2018-04-23T09:47:52.353Z,25.10
2018-04-23T09:50:19.861Z,24.30
2018-04-23T09:52:47.409Z,25.50
2018-04-23T09:55:15.194Z,24.00
2018-04-23T09:57:43.507Z,23.20
2018-04-23T10:00:11.043Z,23.20
2018-04-23T10:02:43.278Z,23.50
2018-04-23T10:05:11.736Z,23.40
2018-04-23T10:07:39.238Z,23.60
2018-04-23T10:10:07.549Z,21.20
2018-04-23T10:12:35.064Z,21.20
2018-04-23T10:15:02.598Z,20.00
2018-04-23T10:17:30.864Z,21.20
2018-04-23T10:19:58.351Z,21.20
2018-04-23T10:22:25.838Z,22.20
2018-04-23T10:24:53.401Z,23.80
2018-04-23T10:27:20.917Z,25.40
2018-04-23T10:29:48.391Z,26.00
2018-04-23T10:32:15.910Z,26.40
2018-04-23T10:34:44.170Z,24.80
2018-04-23T10:37:11.804Z,24.80
2018-04-23T10:39:39.233Z,23.80
2018-04-23T10:42:07.266Z,23.50
2018-04-23T10:44:34.737Z,24.90
2018-04-23T10:47:02.209Z,24.20
2018-04-23T10:49:29.789Z,22.80
2018-04-23T10:51:58.030Z,21.80
2018-04-23T10:54:25.538Z,21.90
2018-04-23T10:56:53.019Z,21.60
2018-04-23T10:59:21.245Z,19.60
2018-04-23T11:01:48.817Z,19.60
2018-04-23T11:04:16.331Z,20.10
2018-04-23T11:06:54.766Z,18.50
2018-04-23T11:09:22.338Z,18.50
2018-04-23T11:11:49.800Z,17.60
2018-04-23T11:14:17.269Z,17.40
2018-04-23T11:16:45.119Z,17.90
2018-04-23T11:19:12.861Z,18.40
2018-04-23T11:21:40.355Z,18.20
2018-04-23T11:24:07.922Z,18.20
2018-04-23T11:26:35.384Z,17.70
2018-04-23T11:29:02.932Z,17.00
2018-04-23T11:31:30.429Z,17.00
2018-04-23T11:33:57.944Z,16.50
2018-04-23T11:36:25.393Z,16.60
2018-04-23T11:38:53.680Z,16.80
2018-04-23T11:41:21.411Z,16.80
2018-04-23T11:43:48.865Z,17.20
2018-04-23T11:46:16.383Z,16.60
2018-04-23T11:48:44.456Z,16.50
2018-04-23T11:51:12.069Z,16.40
2018-04-23T11:53:39.517Z,17.00
2018-04-23T11:56:06.969Z,17.20
2018-04-23T11:58:34.494Z,16.90
2018-04-23T12:01:02.748Z,17.30
2018-04-23T12:03:30.275Z,17.00
2018-04-23T12:05:58.013Z,15.70
2018-04-23T12:08:25.527Z,15.60
2018-04-23T12:10:53.089Z,15.80
2018-04-23T12:13:20.633Z,15.00
2018-04-23T12:15:49.007Z,14.50
2018-04-23T12:18:17.532Z,14.50
2018-04-23T12:20:45.108Z,14.50
2018-04-23T12:23:12.584Z,14.70
2018-04-23T12:25:40.081Z,14.50
2018-04-23T12:28:07.567Z,14.50
2018-04-23T12:30:35.054Z,13.80
2018-04-23T12:33:02.739Z,15.00
2018-04-23T12:35:31.031Z,14.60
2018-04-23T12:37:58.589Z,14.60
2018-04-23T12:40:26.261Z,13.30
2018-04-23T12:42:54.152Z,13.70
2018-04-23T12:45:21.617Z,13.00
2018-04-23T12:47:49.368Z,12.60
2018-04-23T12:50:17.646Z,13.10
2018-04-23T12:52:45.181Z,13.00
2018-04-23T12:55:12.936Z,13.00
2018-04-23T12:57:40.555Z,12.50
2018-04-23T13:00:10.545Z,12.60
2018-04-23T13:02:38.064Z,12.60
2018-04-23T13:05:05.506Z,12.50
2018-04-23T13:07:33.662Z,14.90
2018-04-23T13:10:01.922Z,15.00
2018-04-23T13:12:29.441Z,15.00
2018-04-23T13:14:56.970Z,14.70
2018-04-23T13:17:25.108Z,15.30
2018-04-23T13:19:52.639Z,14.60
2018-04-23T13:22:20.165Z,15.40
2018-04-23T13:24:48.474Z,16.40
2018-04-23T13:27:16.146Z,16.20
2018-04-23T13:29:43.672Z,15.30
2018-04-23T13:32:11.424Z,14.40
2018-04-23T13:34:39.169Z,13.70
2018-04-23T13:37:06.659Z,14.30
2018-04-23T13:39:34.635Z,13.40
2018-04-23T13:42:02.440Z,13.50
2018-04-23T13:44:30.910Z,13.30
2018-04-23T13:46:59.238Z,13.70
2018-04-23T13:49:27.413Z,13.70
2018-04-23T13:51:54.959Z,13.70
2018-04-23T13:54:22.424Z,14.10
2018-04-23T13:56:49.993Z,14.00
2018-04-23T13:59:17.438Z,13.60
2018-04-23T14:01:44.932Z,13.80
2018-04-23T14:04:12.644Z,14.90
2018-04-23T14:06:40.137Z,15.70
2018-04-23T14:09:07.663Z,15.60
2018-04-23T14:11:35.173Z,15.80
2018-04-23T14:14:02.862Z,15.20
2018-04-23T14:16:30.402Z,15.20
2018-04-23T14:18:58.641Z,15.50
2018-04-23T14:21:26.149Z,15.50
2018-04-23T14:23:53.725Z,15.50
2018-04-23T14:26:21.313Z,16.30
2018-04-23T14:28:48.826Z,17.20
2018-04-23T14:31:16.374Z,16.50
2018-04-23T14:33:44.700Z,16.30
2018-04-23T14:36:12.239Z,16.30
2018-04-23T14:38:40.526Z,16.30
2018-04-23T14:41:08.463Z,16.30
2018-04-23T14:43:36.629Z,16.80
2018-04-23T14:46:05.241Z,16.30
2018-04-23T14:48:32.841Z,16.30
2018-04-23T14:51:00.354Z,16.80
2018-04-23T14:53:27.997Z,17.20
2018-04-23T14:55:56.378Z,17.80
2018-04-23T14:58:23.887Z,18.70
2018-04-23T15:00:51.393Z,18.50
2018-04-23T15:03:18.865Z,18.00
2018-04-23T15:05:46.444Z,18.50
2018-04-23T15:08:14.032Z,18.20
2018-04-23T15:10:41.622Z,18.40
2018-04-23T15:13:09.109Z,18.00
2018-04-23T15:15:36.821Z,18.70
2018-04-23T15:18:05.093Z,19.40
2018-04-23T15:20:33.681Z,19.40
2018-04-23T15:23:01.922Z,19.40
2018-04-23T15:25:29.431Z,19.40
2018-04-23T15:27:57.007Z,18.80
2018-04-23T15:30:24.668Z,19.20
2018-04-23T15:32:52.489Z,19.90
2018-04-23T15:35:20.719Z,20.40
2018-04-23T15:37:49.023Z,20.50
2018-04-23T15:40:17.365Z,20.60
2018-04-23T15:42:45.054Z,20.50
2018-04-23T15:45:13.388Z,20.90
2018-04-23T15:47:41.593Z,20.80
2018-04-23T15:50:09.148Z,20.80
2018-04-23T15:52:37.372Z,21.00
2018-04-23T15:55:05.168Z,21.30
2018-04-23T15:57:32.697Z,21.00
2018-04-23T16:00:00.218Z,20.80
2018-04-23T16:02:27.759Z,20.60
2018-04-23T16:04:55.315Z,20.60
2018-04-23T16:07:23.080Z,20.30
2018-04-23T16:09:50.609Z,21.10
2018-04-23T16:12:18.483Z,20.90
2018-04-23T16:14:46.075Z,20.20
2018-04-23T16:17:13.584Z,20.70
2018-04-23T16:19:41.112Z,20.90
2018-04-23T16:22:08.576Z,21.20
2018-04-23T16:24:36.102Z,21.10
2018-04-23T16:27:03.667Z,21.10
2018-04-23T16:29:32.067Z,21.00
2018-04-23T16:32:00.722Z,21.90
2018-04-23T16:34:28.190Z,22.50
2018-04-23T16:36:55.708Z,22.30
2018-04-23T16:39:23.485Z,22.00
2018-04-23T16:41:51.045Z,21.70
2018-04-23T16:44:18.745Z,22.50
2018-04-23T16:46:46.949Z,23.40
2018-04-23T16:49:16.064Z,23.40
2018-04-23T16:51:43.583Z,23.80
2018-04-23T16:54:11.868Z,24.90
2018-04-23T16:56:39.348Z,24.90
2018-04-23T16:59:06.864Z,25.60
2018-04-23T17:01:34.346Z,25.90
2018-04-23T17:04:01.926Z,26.70
2018-04-23T17:06:29.450Z,27.00
2018-04-23T17:08:56.909Z,27.20
2018-04-23T17:11:24.629Z,27.50
2018-04-23T17:13:52.189Z,28.30
2018-04-23T17:16:19.687Z,28.60
2018-04-23T17:18:47.743Z,29.30
2018-04-23T17:21:15.950Z,29.20
2018-04-23T17:23:43.508Z,30.40
2018-04-23T17:26:11.666Z,30.20
2018-04-23T17:28:39.177Z,29.90
2018-04-23T17:31:06.758Z,31.80
2018-04-23T17:33:34.414Z,31.20
2018-04-23T17:36:01.856Z,31.20
2018-04-23T17:38:29.481Z,31.10
2018-04-23T17:40:57.043Z,31.00
2018-04-23T17:43:25.153Z,30.90
2018-04-23T17:45:52.927Z,32.00
2018-04-23T17:48:20.735Z,32.70
2018-04-23T17:50:48.961Z,34.00
2018-04-23T17:53:16.891Z,33.30
2018-04-23T17:55:45.045Z,34.00
2018-04-23T17:58:12.611Z,34.10
2018-04-23T18:00:40.082Z,34.70
2018-04-23T18:03:07.598Z,35.30
2018-04-23T18:05:36.161Z,36.10
2018-04-23T18:08:04.340Z,36.20
2018-04-23T18:10:31.863Z,36.20
2018-04-23T18:12:59.312Z,36.50
2018-04-23T18:15:27.033Z,36.00
2018-04-23T18:17:54.637Z,36.60
2018-04-23T18:20:22.093Z,36.20
2018-04-23T18:22:50.144Z,36.40
2018-04-23T18:25:17.578Z,36.20
2018-04-23T18:27:45.383Z,37.00
2018-04-23T18:30:12.897Z,36.70
2018-04-23T18:32:40.406Z,36.70
2018-04-23T18:35:07.978Z,37.00
2018-04-23T18:37:35.442Z,37.30
2018-04-23T18:40:02.922Z,37.30
2018-04-23T18:42:31.188Z,38.20
2018-04-23T18:44:59.495Z,39.50
2018-04-23T18:47:28.105Z,39.50
2018-04-23T18:49:55.635Z,39.40
2018-04-23T18:52:24.064Z,40.00
2018-04-23T18:54:52.290Z,40.10
2018-04-23T18:57:20.807Z,40.70
2018-04-23T18:59:49.036Z,40.60
2018-04-23T19:02:16.551Z,40.80
2018-04-23T19:04:44.728Z,40.70
2018-04-23T19:07:12.653Z,40.70
2018-04-23T19:09:40.230Z,41.00
2018-04-23T19:12:08.597Z,41.10
2018-04-23T19:14:36.130Z,41.00
2018-04-23T19:17:03.678Z,41.10
2018-04-23T19:19:31.159Z,41.20
2018-04-23T19:21:58.709Z,41.00
2018-04-23T19:24:26.161Z,40.50
2018-04-23T19:26:54.081Z,40.60
2018-04-23T19:29:21.624Z,40.70
2018-04-23T19:31:49.206Z,41.00
2018-04-23T19:34:16.702Z,41.30
2018-04-23T19:36:45.073Z,40.90
2018-04-23T19:39:12.512Z,40.90
2018-04-23T19:41:40.070Z,40.70
2018-04-23T19:44:07.620Z,41.30
2018-04-23T19:46:35.136Z,41.80
2018-04-23T19:49:03.443Z,43.00
2018-04-23T19:51:30.952Z,42.90
2018-04-23T19:53:58.432Z,43.80
2018-04-23T19:56:25.975Z,43.00
2018-04-23T19:58:53.443Z,43.50
2018-04-23T20:01:21.038Z,44.60
2018-04-23T20:03:48.522Z,45.00
2018-04-23T20:06:16.085Z,46.40
2018-04-23T20:08:44.366Z,46.40
2018-04-23T20:11:11.909Z,47.70
2018-04-23T20:13:40.218Z,48.80
2018-04-23T20:16:08.448Z,48.70
2018-04-23T20:18:36.008Z,50.70
2018-04-23T20:21:03.517Z,51.20
2018-04-23T20:23:31.148Z,52.60
2018-04-23T20:25:58.701Z,53.40
2018-04-23T20:28:27.132Z,54.60
2018-04-23T20:30:55.088Z,58.40
2018-04-23T20:33:22.739Z,61.00
2018-04-23T20:35:50.427Z,64.00
2018-04-23T20:38:18.912Z,70.90
2018-04-23T20:40:46.405Z,70.00
2018-04-23T20:43:13.950Z,69.40
2018-04-23T20:45:41.569Z,70.30
2018-04-23T20:48:09.065Z,71.30
2018-04-23T20:50:36.621Z,75.30
2018-04-23T20:53:04.105Z,79.30
2018-04-23T20:55:31.697Z,82.10
2018-04-23T20:58:00.725Z,89.60
2018-04-23T21:00:28.226Z,89.60
2018-04-23T21:02:55.720Z,90.90
2018-04-23T21:05:23.915Z,92.40
2018-04-23T21:07:51.453Z,92.40
2018-04-23T21:10:19.036Z,92.60
2018-04-23T21:12:46.527Z,92.40
2018-04-23T21:15:14.397Z,91.80
2018-04-23T21:17:41.889Z,92.20
2018-04-23T21:20:09.390Z,91.80
2018-04-23T21:22:36.914Z,92.00
2018-04-23T21:25:04.441Z,92.60
2018-04-23T21:27:32.073Z,93.20
2018-04-23T21:30:01.082Z,94.40
2018-04-23T21:32:29.427Z,95.20
2018-04-23T21:34:56.908Z,94.80
2018-04-23T21:37:24.439Z,95.30
2018-04-23T21:39:52.723Z,95.80
2018-04-23T21:42:20.268Z,95.80
2018-04-23T21:44:48.496Z,96.60
2018-04-23T21:47:16.055Z,96.60
2018-04-23T21:49:44.320Z,97.30
2018-04-23T21:52:12.625Z,97.50
2018-04-23T21:54:40.100Z,97.50
2018-04-23T21:57:07.688Z,97.90
2018-04-23T21:59:35.493Z,97.80
2018-04-23T22:02:03.868Z,98.00
2018-04-23T22:04:31.753Z,97.90
2018-04-23T22:07:00.013Z,98.20
2018-04-23T22:09:27.983Z,97.90
2018-04-23T22:11:55.405Z,97.90
2018-04-23T22:14:22.969Z,97.90
2018-04-23T22:16:50.549Z,97.90
2018-04-23T22:19:18.239Z,97.50
2018-04-23T22:21:45.821Z,97.50
2018-04-23T22:24:13.382Z,97.40
2018-04-23T22:26:40.852Z,97.40
2018-04-23T22:29:09.095Z,98.00
2018-04-23T22:31:36.766Z,97.80
2018-04-23T22:34:04.237Z,98.00
2018-04-23T22:36:31.714Z,98.30
2018-04-23T22:39:00.012Z,98.30
2018-04-23T22:41:28.244Z,98.30
2018-04-23T22:43:55.969Z,98.30
2018-04-23T22:46:23.499Z,98.50
2018-04-23T22:48:51.741Z,98.30
2018-04-23T22:51:19.228Z,98.30
2018-04-23T22:53:46.723Z,98.30
2018-04-23T22:56:14.318Z,98.30
2018-04-23T22:58:41.804Z,98.20
2018-04-23T23:01:09.309Z,98.00
2018-04-23T23:03:36.878Z,98.10
2018-04-23T23:06:05.123Z,98.50
2018-04-23T23:08:32.638Z,98.50
2018-04-23T23:11:00.287Z,98.50
2018-04-23T23:13:27.698Z,98.40
2018-04-23T23:15:55.203Z,98.60
2018-04-23T23:18:23.538Z,98.70
2018-04-23T23:20:55.213Z,98.80
2018-04-23T23:23:22.695Z,98.80
2018-04-23T23:25:50.169Z,99.20
2018-04-23T23:28:17.715Z,99.00
2018-04-23T23:30:45.271Z,99.10
2018-04-23T23:33:12.740Z,99.10
2018-04-23T23:35:40.455Z,98.90
2018-04-23T23:38:08.715Z,98.70
2018-04-23T23:40:37.054Z,98.70
2018-04-23T23:43:05.301Z,98.90
2018-04-23T23:45:32.836Z,98.90
2018-04-23T23:48:01.109Z,99.20
2018-04-23T23:50:28.619Z,99.20
2018-04-23T23:52:56.109Z,99.00
2018-04-23T23:55:23.635Z,98.90
2018-04-23T23:57:51.131Z,99.00
